sensor_id;sensor_type;location;lat;lon;timestamp;pressure;altitude;pressure_sealevel;temperature;humidity
24230;BME280;12362;50.004;8.006;2024-03-02T00:01:58;99428.38;;;4.01;100.00
24230;BME280;12362;50.004;8.006;2024-03-02T00:04:24;99431.84;;;4.00;100.00
24230;BME280;12362;50.004;8.006;2024-03-02T00:06:52;99441.94;;;4.05;100.00
24230;BME280;12362;50.004;8.006;2024-03-02T00:09:19;99439.50;;;4.02;100.00
24230;BME280;12362;50.004;8.006;2024-03-02T00:11:45;99429.59;;;3.70;100.00
24230;BME280;12362;50.004;8.006;2024-03-02T00:14:11;99431.06;;;3.77;100.00
24230;BME280;12362;50.004;8.006;2024-03-02T00:16:36;99427.69;;;3.75;100.00
24230;BME280;12362;50.004;8.006;2024-03-02T00:19:03;99424.09;;;3.58;100.00
24230;BME280;12362;50.004;8.006;2024-03-02T00:21:30;99431.53;;;3.63;100.00
24230;BME280;12362;50.004;8.006;2024-03-02T00:23:56;99440.47;;;3.76;100.00
24230;BME280;12362;50.004;8.006;2024-03-02T00:26:22;99434.94;;;3.87;100.00
24230;BME280;12362;50.004;8.006;2024-03-02T00:28:48;99440.28;;;4.04;100.00
24230;BME280;12362;50.004;8.006;2024-03-02T00:31:20;99435.53;;;4.16;100.00
24230;BME280;12362;50.004;8.006;2024-03-02T00:33:47;99443.13;;;4.19;100.00
24230;BME280;12362;50.004;8.006;2024-03-02T00:36:16;99431.88;;;4.22;100.00
24230;BME280;12362;50.004;8.006;2024-03-02T00:38:48;99435.81;;;4.30;100.00
24230;BME280;12362;50.004;8.006;2024-03-02T00:41:30;99438.41;;;4.30;100.00
24230;BME280;12362;50.004;8.006;2024-03-02T00:46:28;99439.44;;;4.46;100.00
24230;BME280;12362;50.004;8.006;2024-03-02T00:48:59;99440.13;;;4.51;100.00
24230;BME280;12362;50.004;8.006;2024-03-02T00:51:27;99434.19;;;4.49;100.00
24230;BME280;12362;50.004;8.006;2024-03-02T00:53:53;99429.13;;;4.47;100.00
24230;BME280;12362;50.004;8.006;2024-03-02T00:56:23;99435.81;;;4.30;100.00
24230;BME280;12362;50.004;8.006;2024-03-02T00:58:49;99420.41;;;4.09;100.00
24230;BME280;12362;50.004;8.006;2024-03-02T01:01:15;99420.56;;;4.04;100.00
24230;BME280;12362;50.004;8.006;2024-03-02T01:03:42;99424.31;;;3.96;100.00
24230;BME280;12362;50.004;8.006;2024-03-02T01:06:07;99423.78;;;3.88;100.00
24230;BME280;12362;50.004;8.006;2024-03-02T01:08:36;99415.47;;;3.81;100.00
24230;BME280;12362;50.004;8.006;2024-03-02T01:11:03;99422.66;;;3.95;100.00
24230;BME280;12362;50.004;8.006;2024-03-02T01:13:28;99419.91;;;3.99;100.00
24230;BME280;12362;50.004;8.006;2024-03-02T01:15:54;99421.47;;;4.03;100.00
24230;BME280;12362;50.004;8.006;2024-03-02T01:18:20;99419.44;;;4.11;100.00
24230;BME280;12362;50.004;8.006;2024-03-02T01:20:45;99410.06;;;4.10;100.00
24230;BME280;12362;50.004;8.006;2024-03-02T01:23:11;99418.72;;;4.08;100.00
24230;BME280;12362;50.004;8.006;2024-03-02T01:25:36;99416.75;;;4.14;100.00
24230;BME280;12362;50.004;8.006;2024-03-02T01:28:02;99409.84;;;4.16;100.00
24230;BME280;12362;50.004;8.006;2024-03-02T01:30:28;99411.53;;;4.16;100.00
24230;BME280;12362;50.004;8.006;2024-03-02T01:32:53;99405.66;;;4.14;100.00
24230;BME280;12362;50.004;8.006;2024-03-02T01:35:19;99412.09;;;4.24;100.00
24230;BME280;12362;50.004;8.006;2024-03-02T01:37:44;99409.41;;;4.27;100.00
24230;BME280;12362;50.004;8.006;2024-03-02T01:40:10;99407.91;;;4.21;100.00
24230;BME280;12362;50.004;8.006;2024-03-02T01:42:37;99405.00;;;4.09;100.00
24230;BME280;12362;50.004;8.006;2024-03-02T01:45:05;99414.66;;;4.02;100.00
24230;BME280;12362;50.004;8.006;2024-03-02T01:47:31;99416.25;;;4.05;100.00
24230;BME280;12362;50.004;8.006;2024-03-02T01:49:58;99409.00;;;3.94;100.00
24230;BME280;12362;50.004;8.006;2024-03-02T01:52:24;99405.81;;;3.88;100.00
24230;BME280;12362;50.004;8.006;2024-03-02T01:54:52;99401.50;;;3.88;100.00
24230;BME280;12362;50.004;8.006;2024-03-02T01:57:17;99401.59;;;3.64;100.00
24230;BME280;12362;50.004;8.006;2024-03-02T01:59:43;99404.78;;;3.48;100.00
24230;BME280;12362;50.004;8.006;2024-03-02T02:02:09;99406.16;;;3.56;100.00
24230;BME280;12362;50.004;8.006;2024-03-02T02:04:35;99397.63;;;3.56;100.00
24230;BME280;12362;50.004;8.006;2024-03-02T02:07:00;99397.81;;;3.51;100.00
24230;BME280;12362;50.004;8.006;2024-03-02T02:09:26;99399.31;;;3.57;100.00
24230;BME280;12362;50.004;8.006;2024-03-02T02:11:52;99399.06;;;3.62;100.00
24230;BME280;12362;50.004;8.006;2024-03-02T02:14:17;99401.25;;;3.73;100.00
24230;BME280;12362;50.004;8.006;2024-03-02T02:16:43;99396.13;;;3.73;100.00
24230;BME280;12362;50.004;8.006;2024-03-02T02:19:09;99405.50;;;3.74;100.00
24230;BME280;12362;50.004;8.006;2024-03-02T02:21:35;99390.09;;;3.74;100.00
24230;BME280;12362;50.004;8.006;2024-03-02T02:24:01;99388.50;;;3.49;100.00
24230;BME280;12362;50.004;8.006;2024-03-02T02:26:28;99386.09;;;3.67;100.00
24230;BME280;12362;50.004;8.006;2024-03-02T02:28:54;99385.53;;;4.03;100.00
24230;BME280;12362;50.004;8.006;2024-03-02T02:31:19;99383.59;;;4.30;100.00
24230;BME280;12362;50.004;8.006;2024-03-02T02:33:45;99382.41;;;4.38;100.00
24230;BME280;12362;50.004;8.006;2024-03-02T02:36:10;99381.69;;;4.35;100.00
24230;BME280;12362;50.004;8.006;2024-03-02T02:38:38;99374.47;;;4.44;100.00
24230;BME280;12362;50.004;8.006;2024-03-02T02:41:04;99369.94;;;4.49;100.00
24230;BME280;12362;50.004;8.006;2024-03-02T02:43:29;99367.00;;;4.58;100.00
24230;BME280;12362;50.004;8.006;2024-03-02T02:45:55;99367.16;;;4.55;100.00
24230;BME280;12362;50.004;8.006;2024-03-02T02:48:20;99370.72;;;4.51;100.00
24230;BME280;12362;50.004;8.006;2024-03-02T02:50:46;99365.91;;;4.44;100.00
24230;BME280;12362;50.004;8.006;2024-03-02T02:53:11;99364.34;;;4.40;100.00
24230;BME280;12362;50.004;8.006;2024-03-02T02:55:39;99361.72;;;4.41;100.00
24230;BME280;12362;50.004;8.006;2024-03-02T02:58:06;99370.25;;;4.42;100.00
24230;BME280;12362;50.004;8.006;2024-03-02T03:00:32;99368.84;;;4.35;100.00
24230;BME280;12362;50.004;8.006;2024-03-02T03:02:57;99368.25;;;4.28;100.00
24230;BME280;12362;50.004;8.006;2024-03-02T03:05:23;99368.84;;;4.13;100.00
24230;BME280;12362;50.004;8.006;2024-03-02T03:07:48;99367.44;;;4.06;100.00
24230;BME280;12362;50.004;8.006;2024-03-02T03:10:16;99371.19;;;3.98;100.00
24230;BME280;12362;50.004;8.006;2024-03-02T03:12:42;99368.50;;;4.01;100.00
24230;BME280;12362;50.004;8.006;2024-03-02T03:15:09;99358.66;;;3.90;100.00
24230;BME280;12362;50.004;8.006;2024-03-02T03:17:35;99357.94;;;3.87;100.00
24230;BME280;12362;50.004;8.006;2024-03-02T03:20:01;99360.78;;;3.79;100.00
24230;BME280;12362;50.004;8.006;2024-03-02T03:22:27;99358.63;;;3.69;100.00
24230;BME280;12362;50.004;8.006;2024-03-02T03:24:53;99361.19;;;3.69;100.00
24230;BME280;12362;50.004;8.006;2024-03-02T03:27:19;99356.00;;;3.70;100.00
24230;BME280;12362;50.004;8.006;2024-03-02T03:29:45;99358.09;;;3.61;100.00
24230;BME280;12362;50.004;8.006;2024-03-02T03:32:10;99359.75;;;3.62;100.00
24230;BME280;12362;50.004;8.006;2024-03-02T03:34:36;99364.50;;;3.72;100.00
24230;BME280;12362;50.004;8.006;2024-03-02T03:37:02;99358.69;;;3.67;100.00
24230;BME280;12362;50.004;8.006;2024-03-02T03:39:28;99359.41;;;3.71;100.00
24230;BME280;12362;50.004;8.006;2024-03-02T03:41:54;99358.59;;;3.70;100.00
24230;BME280;12362;50.004;8.006;2024-03-02T03:44:19;99356.31;;;3.63;100.00
24230;BME280;12362;50.004;8.006;2024-03-02T03:46:45;99358.16;;;3.59;100.00
24230;BME280;12362;50.004;8.006;2024-03-02T03:49:10;99349.25;;;3.47;100.00
24230;BME280;12362;50.004;8.006;2024-03-02T03:51:36;99358.63;;;3.46;100.00
24230;BME280;12362;50.004;8.006;2024-03-02T03:54:01;99360.28;;;3.49;100.00
24230;BME280;12362;50.004;8.006;2024-03-02T03:56:27;99360.38;;;3.46;100.00
24230;BME280;12362;50.004;8.006;2024-03-02T03:58:52;99355.88;;;3.29;100.00
24230;BME280;12362;50.004;8.006;2024-03-02T04:01:18;99362.97;;;3.23;100.00
24230;BME280;12362;50.004;8.006;2024-03-02T04:03:43;99369.59;;;3.28;100.00
24230;BME280;12362;50.004;8.006;2024-03-02T04:06:09;99362.44;;;3.36;100.00
24230;BME280;12362;50.004;8.006;2024-03-02T04:08:34;99359.06;;;3.36;100.00
24230;BME280;12362;50.004;8.006;2024-03-02T04:11:00;99365.00;;;3.36;100.00
24230;BME280;12362;50.004;8.006;2024-03-02T04:13:28;99362.81;;;3.26;100.00
24230;BME280;12362;50.004;8.006;2024-03-02T04:15:53;99366.31;;;3.25;100.00
24230;BME280;12362;50.004;8.006;2024-03-02T04:18:19;99364.91;;;3.39;100.00
24230;BME280;12362;50.004;8.006;2024-03-02T04:20:44;99367.28;;;3.44;100.00
24230;BME280;12362;50.004;8.006;2024-03-02T04:23:10;99361.03;;;3.28;100.00
24230;BME280;12362;50.004;8.006;2024-03-02T04:25:35;99365.63;;;3.20;100.00
24230;BME280;12362;50.004;8.006;2024-03-02T04:28:01;99384.53;;;3.17;100.00
24230;BME280;12362;50.004;8.006;2024-03-02T04:30:26;99383.75;;;3.15;100.00
24230;BME280;12362;50.004;8.006;2024-03-02T04:32:52;99385.41;;;3.16;100.00
24230;BME280;12362;50.004;8.006;2024-03-02T04:35:17;99380.03;;;3.24;100.00
24230;BME280;12362;50.004;8.006;2024-03-02T04:37:43;99382.59;;;2.99;100.00
24230;BME280;12362;50.004;8.006;2024-03-02T04:40:09;99382.22;;;2.85;100.00
24230;BME280;12362;50.004;8.006;2024-03-02T04:42:35;99386.94;;;2.97;100.00
24230;BME280;12362;50.004;8.006;2024-03-02T04:45:01;99390.13;;;3.04;100.00
24230;BME280;12362;50.004;8.006;2024-03-02T04:47:26;99391.13;;;3.00;100.00
24230;BME280;12362;50.004;8.006;2024-03-02T04:49:52;99393.53;;;3.04;100.00
24230;BME280;12362;50.004;8.006;2024-03-02T04:52:17;99391.84;;;3.03;100.00
24230;BME280;12362;50.004;8.006;2024-03-02T04:54:43;99399.59;;;2.77;100.00
24230;BME280;12362;50.004;8.006;2024-03-02T04:57:27;99399.31;;;2.61;100.00
24230;BME280;12362;50.004;8.006;2024-03-02T04:59:52;99403.25;;;2.70;100.00
24230;BME280;12362;50.004;8.006;2024-03-02T05:02:18;99402.16;;;2.77;100.00
24230;BME280;12362;50.004;8.006;2024-03-02T05:04:43;99408.63;;;2.87;100.00
24230;BME280;12362;50.004;8.006;2024-03-02T05:07:09;99399.66;;;3.00;100.00
24230;BME280;12362;50.004;8.006;2024-03-02T05:09:35;99406.75;;;3.17;100.00
24230;BME280;12362;50.004;8.006;2024-03-02T05:12:00;99408.97;;;3.26;100.00
24230;BME280;12362;50.004;8.006;2024-03-02T05:14:48;99407.16;;;3.29;100.00
24230;BME280;12362;50.004;8.006;2024-03-02T05:17:14;99403.75;;;3.29;100.00
24230;BME280;12362;50.004;8.006;2024-03-02T05:19:39;99418.16;;;3.33;100.00
24230;BME280;12362;50.004;8.006;2024-03-02T05:22:04;99412.84;;;3.37;100.00
24230;BME280;12362;50.004;8.006;2024-03-02T05:24:31;99412.75;;;3.40;100.00
24230;BME280;12362;50.004;8.006;2024-03-02T05:26:56;99415.09;;;3.46;100.00
24230;BME280;12362;50.004;8.006;2024-03-02T05:29:22;99415.09;;;3.46;100.00
24230;BME280;12362;50.004;8.006;2024-03-02T05:31:48;99419.06;;;3.55;100.00
24230;BME280;12362;50.004;8.006;2024-03-02T05:34:14;99416.94;;;3.65;100.00
24230;BME280;12362;50.004;8.006;2024-03-02T05:36:39;99414.00;;;3.74;100.00
24230;BME280;12362;50.004;8.006;2024-03-02T05:39:05;99415.06;;;3.92;100.00
24230;BME280;12362;50.004;8.006;2024-03-02T05:41:35;99409.63;;;3.99;100.00
24230;BME280;12362;50.004;8.006;2024-03-02T05:44:01;99416.41;;;4.02;100.00
24230;BME280;12362;50.004;8.006;2024-03-02T05:46:27;99423.16;;;4.04;100.00
24230;BME280;12362;50.004;8.006;2024-03-02T05:48:52;99418.72;;;4.08;100.00
24230;BME280;12362;50.004;8.006;2024-03-02T05:51:18;99424.47;;;4.14;100.00
24230;BME280;12362;50.004;8.006;2024-03-02T05:53:43;99416.53;;;4.20;100.00
24230;BME280;12362;50.004;8.006;2024-03-02T05:56:08;99412.03;;;4.25;100.00
24230;BME280;12362;50.004;8.006;2024-03-02T05:58:34;99417.59;;;4.36;100.00
24230;BME280;12362;50.004;8.006;2024-03-02T06:01:16;99423.41;;;4.41;100.00
24230;BME280;12362;50.004;8.006;2024-03-02T06:03:43;99422.84;;;4.54;100.00
24230;BME280;12362;50.004;8.006;2024-03-02T06:06:09;99426.84;;;4.61;100.00
24230;BME280;12362;50.004;8.006;2024-03-02T06:08:35;99425.22;;;4.59;100.00
24230;BME280;12362;50.004;8.006;2024-03-02T06:11:01;99427.78;;;4.59;100.00
24230;BME280;12362;50.004;8.006;2024-03-02T06:13:26;99414.75;;;4.63;100.00
24230;BME280;12362;50.004;8.006;2024-03-02T06:15:52;99412.06;;;4.66;100.00
24230;BME280;12362;50.004;8.006;2024-03-02T06:18:17;99414.22;;;4.55;100.00
24230;BME280;12362;50.004;8.006;2024-03-02T06:20:43;99411.66;;;4.55;100.00
24230;BME280;12362;50.004;8.006;2024-03-02T06:23:08;99417.28;;;4.65;100.00
24230;BME280;12362;50.004;8.006;2024-03-02T06:25:34;99423.59;;;4.78;100.00
24230;BME280;12362;50.004;8.006;2024-03-02T06:28:00;99418.88;;;4.87;100.00
24230;BME280;12362;50.004;8.006;2024-03-02T06:30:25;99429.75;;;4.94;100.00
24230;BME280;12362;50.004;8.006;2024-03-02T06:32:51;99426.03;;;5.01;100.00
24230;BME280;12362;50.004;8.006;2024-03-02T06:35:16;99426.81;;;5.03;100.00
24230;BME280;12362;50.004;8.006;2024-03-02T06:37:42;99426.75;;;5.04;100.00
24230;BME280;12362;50.004;8.006;2024-03-02T06:40:08;99432.06;;;5.20;100.00
24230;BME280;12362;50.004;8.006;2024-03-02T06:42:34;99438.63;;;5.27;100.00
24230;BME280;12362;50.004;8.006;2024-03-02T06:45:01;99438.28;;;5.34;100.00
24230;BME280;12362;50.004;8.006;2024-03-02T06:47:27;99436.38;;;5.39;100.00
24230;BME280;12362;50.004;8.006;2024-03-02T06:49:52;99430.13;;;5.44;100.00
24230;BME280;12362;50.004;8.006;2024-03-02T06:52:18;99423.97;;;5.47;100.00
24230;BME280;12362;50.004;8.006;2024-03-02T06:54:44;99429.91;;;5.49;100.00
24230;BME280;12362;50.004;8.006;2024-03-02T06:57:09;99430.56;;;5.54;100.00
24230;BME280;12362;50.004;8.006;2024-03-02T06:59:35;99439.78;;;5.58;100.00
24230;BME280;12362;50.004;8.006;2024-03-02T07:02:00;99440.94;;;5.71;100.00
24230;BME280;12362;50.004;8.006;2024-03-02T07:04:27;99443.28;;;5.77;100.00
24230;BME280;12362;50.004;8.006;2024-03-02T07:06:52;99443.63;;;5.88;100.00
24230;BME280;12362;50.004;8.006;2024-03-02T07:09:18;99450.94;;;5.97;100.00
24230;BME280;12362;50.004;8.006;2024-03-02T07:11:43;99447.72;;;6.10;100.00
24230;BME280;12362;50.004;8.006;2024-03-02T07:14:09;99437.84;;;6.20;100.00
24230;BME280;12362;50.004;8.006;2024-03-02T07:16:37;99450.00;;;6.34;100.00
24230;BME280;12362;50.004;8.006;2024-03-02T07:19:03;99449.53;;;6.45;100.00
24230;BME280;12362;50.004;8.006;2024-03-02T07:21:29;99453.56;;;6.50;100.00
24230;BME280;12362;50.004;8.006;2024-03-02T07:23:54;99458.41;;;6.56;100.00
24230;BME280;12362;50.004;8.006;2024-03-02T07:26:20;99461.84;;;6.57;100.00
24230;BME280;12362;50.004;8.006;2024-03-02T07:28:46;99458.84;;;6.64;100.00
24230;BME280;12362;50.004;8.006;2024-03-02T07:31:13;99465.69;;;6.65;100.00
24230;BME280;12362;50.004;8.006;2024-03-02T07:33:38;99459.84;;;6.62;100.00
24230;BME280;12362;50.004;8.006;2024-03-02T07:36:04;99449.84;;;6.73;100.00
24230;BME280;12362;50.004;8.006;2024-03-02T07:38:30;99451.25;;;6.80;100.00
24230;BME280;12362;50.004;8.006;2024-03-02T07:40:56;99457.38;;;6.94;100.00
24230;BME280;12362;50.004;8.006;2024-03-02T07:43:22;99447.22;;;7.08;100.00
24230;BME280;12362;50.004;8.006;2024-03-02T07:45:48;99455.13;;;7.22;100.00
24230;BME280;12362;50.004;8.006;2024-03-02T07:48:14;99445.22;;;7.30;100.00
24230;BME280;12362;50.004;8.006;2024-03-02T07:50:40;99451.91;;;7.34;100.00
24230;BME280;12362;50.004;8.006;2024-03-02T07:53:06;99454.72;;;7.29;100.00
24230;BME280;12362;50.004;8.006;2024-03-02T07:55:33;99460.09;;;7.25;100.00
24230;BME280;12362;50.004;8.006;2024-03-02T07:57:58;99466.72;;;7.30;100.00
24230;BME280;12362;50.004;8.006;2024-03-02T08:00:24;99465.22;;;7.26;100.00
24230;BME280;12362;50.004;8.006;2024-03-02T08:02:51;99464.06;;;7.32;100.00
24230;BME280;12362;50.004;8.006;2024-03-02T08:05:17;99469.44;;;7.44;100.00
24230;BME280;12362;50.004;8.006;2024-03-02T08:07:46;99461.38;;;7.50;100.00
24230;BME280;12362;50.004;8.006;2024-03-02T08:10:12;99459.66;;;7.66;100.00
24230;BME280;12362;50.004;8.006;2024-03-02T08:12:37;99459.13;;;7.77;100.00
24230;BME280;12362;50.004;8.006;2024-03-02T08:15:03;99463.28;;;7.79;100.00
24230;BME280;12362;50.004;8.006;2024-03-02T08:17:30;99466.59;;;7.98;100.00
24230;BME280;12362;50.004;8.006;2024-03-02T08:19:55;99473.91;;;8.06;100.00
24230;BME280;12362;50.004;8.006;2024-03-02T08:22:22;99469.06;;;8.00;100.00
24230;BME280;12362;50.004;8.006;2024-03-02T08:24:47;99473.22;;;7.87;100.00
24230;BME280;12362;50.004;8.006;2024-03-02T08:27:13;99473.22;;;7.87;100.00
24230;BME280;12362;50.004;8.006;2024-03-02T08:29:40;99471.50;;;8.03;100.00
24230;BME280;12362;50.004;8.006;2024-03-02T08:32:06;99470.41;;;8.07;100.00
24230;BME280;12362;50.004;8.006;2024-03-02T08:34:32;99468.41;;;8.11;100.00
24230;BME280;12362;50.004;8.006;2024-03-02T08:37:00;99461.47;;;8.29;100.00
24230;BME280;12362;50.004;8.006;2024-03-02T08:39:26;99461.94;;;8.51;100.00
24230;BME280;12362;50.004;8.006;2024-03-02T08:41:51;99466.75;;;8.72;100.00
24230;BME280;12362;50.004;8.006;2024-03-02T08:44:17;99461.34;;;8.77;100.00
24230;BME280;12362;50.004;8.006;2024-03-02T08:46:43;99457.06;;;8.76;100.00
24230;BME280;12362;50.004;8.006;2024-03-02T08:49:09;99455.56;;;8.87;100.00
24230;BME280;12362;50.004;8.006;2024-03-02T08:51:35;99455.09;;;8.95;100.00
24230;BME280;12362;50.004;8.006;2024-03-02T08:54:01;99458.91;;;9.03;100.00
24230;BME280;12362;50.004;8.006;2024-03-02T08:56:26;99460.69;;;9.02;100.00
24230;BME280;12362;50.004;8.006;2024-03-02T08:58:54;99465.13;;;9.01;100.00
24230;BME280;12362;50.004;8.006;2024-03-02T09:01:20;99463.06;;;8.92;100.00
24230;BME280;12362;50.004;8.006;2024-03-02T09:03:46;99463.72;;;8.95;100.00
24230;BME280;12362;50.004;8.006;2024-03-02T09:06:12;99449.16;;;9.08;100.00
24230;BME280;12362;50.004;8.006;2024-03-02T09:08:39;99445.41;;;8.98;100.00
24230;BME280;12362;50.004;8.006;2024-03-02T09:11:05;99450.97;;;9.06;100.00
24230;BME280;12362;50.004;8.006;2024-03-02T09:13:32;99449.84;;;8.96;100.00
24230;BME280;12362;50.004;8.006;2024-03-02T09:15:58;99446.41;;;8.96;100.00
24230;BME280;12362;50.004;8.006;2024-03-02T09:18:24;99449.25;;;9.20;100.00
24230;BME280;12362;50.004;8.006;2024-03-02T09:20:49;99437.19;;;9.35;100.00
24230;BME280;12362;50.004;8.006;2024-03-02T09:23:15;99441.63;;;9.61;100.00
24230;BME280;12362;50.004;8.006;2024-03-02T09:25:40;99443.56;;;9.57;100.00
24230;BME280;12362;50.004;8.006;2024-03-02T09:28:06;99434.41;;;9.52;100.00
24230;BME280;12362;50.004;8.006;2024-03-02T09:30:32;99437.16;;;9.49;100.00
24230;BME280;12362;50.004;8.006;2024-03-02T09:32:58;99445.72;;;9.65;100.00
24230;BME280;12362;50.004;8.006;2024-03-02T09:35:24;99440.88;;;9.87;100.00
24230;BME280;12362;50.004;8.006;2024-03-02T09:37:49;99441.66;;;10.16;100.00
24230;BME280;12362;50.004;8.006;2024-03-02T09:40:15;99430.69;;;10.25;100.00
24230;BME280;12362;50.004;8.006;2024-03-02T09:42:41;99427.88;;;10.81;100.00
24230;BME280;12362;50.004;8.006;2024-03-02T09:45:08;99418.41;;;11.19;100.00
24230;BME280;12362;50.004;8.006;2024-03-02T09:47:34;99412.91;;;11.48;100.00
24230;BME280;12362;50.004;8.006;2024-03-02T09:50:00;99408.44;;;11.50;100.00
24230;BME280;12362;50.004;8.006;2024-03-02T09:52:26;99402.94;;;11.67;100.00
24230;BME280;12362;50.004;8.006;2024-03-02T09:54:54;99405.00;;;11.87;100.00
24230;BME280;12362;50.004;8.006;2024-03-02T09:57:20;99398.88;;;11.38;100.00
24230;BME280;12362;50.004;8.006;2024-03-02T09:59:45;99396.19;;;11.77;100.00
24230;BME280;12362;50.004;8.006;2024-03-02T10:02:11;99397.03;;;12.13;100.00
24230;BME280;12362;50.004;8.006;2024-03-02T10:04:36;99404.66;;;12.04;100.00
24230;BME280;12362;50.004;8.006;2024-03-02T10:07:18;99401.81;;;11.83;100.00
24230;BME280;12362;50.004;8.006;2024-03-02T10:09:48;99412.69;;;11.88;100.00
24230;BME280;12362;50.004;8.006;2024-03-02T10:12:18;99405.91;;;11.98;100.00
24230;BME280;12362;50.004;8.006;2024-03-02T10:14:44;99405.63;;;11.90;100.00
24230;BME280;12362;50.004;8.006;2024-03-02T10:17:11;99409.69;;;11.82;100.00
24230;BME280;12362;50.004;8.006;2024-03-02T10:19:37;99415.72;;;11.45;100.00
24230;BME280;12362;50.004;8.006;2024-03-02T10:22:08;99411.75;;;11.40;100.00
24230;BME280;12362;50.004;8.006;2024-03-02T10:24:43;99403.78;;;11.30;100.00
24230;BME280;12362;50.004;8.006;2024-03-02T10:27:16;99396.16;;;11.40;100.00
24230;BME280;12362;50.004;8.006;2024-03-02T10:29:45;99398.56;;;11.18;100.00
24230;BME280;12362;50.004;8.006;2024-03-02T10:32:11;99404.88;;;11.01;100.00
24230;BME280;12362;50.004;8.006;2024-03-02T10:34:40;99400.25;;;10.80;100.00
24230;BME280;12362;50.004;8.006;2024-03-02T10:37:06;99406.28;;;10.81;100.00
24230;BME280;12362;50.004;8.006;2024-03-02T10:39:35;99408.75;;;10.70;100.00
24230;BME280;12362;50.004;8.006;2024-03-02T10:42:02;99412.78;;;10.61;100.00
24230;BME280;12362;50.004;8.006;2024-03-02T10:44:28;99410.06;;;10.63;100.00
24230;BME280;12362;50.004;8.006;2024-03-02T10:46:55;99412.47;;;10.66;100.00
24230;BME280;12362;50.004;8.006;2024-03-02T10:49:22;99400.44;;;10.65;100.00
24230;BME280;12362;50.004;8.006;2024-03-02T10:51:48;99400.31;;;10.66;100.00
24230;BME280;12362;50.004;8.006;2024-03-02T10:54:13;99398.88;;;10.75;100.00
24230;BME280;12362;50.004;8.006;2024-03-02T10:56:40;99397.63;;;10.68;100.00
24230;BME280;12362;50.004;8.006;2024-03-02T10:59:19;99388.94;;;10.81;100.00
24230;BME280;12362;50.004;8.006;2024-03-02T11:01:48;99393.09;;;10.83;100.00
24230;BME280;12362;50.004;8.006;2024-03-02T11:04:18;99386.69;;;10.89;100.00
24230;BME280;12362;50.004;8.006;2024-03-02T11:06:48;99387.63;;;11.00;100.00
24230;BME280;12362;50.004;8.006;2024-03-02T11:09:18;99381.50;;;11.01;100.00
24230;BME280;12362;50.004;8.006;2024-03-02T11:11:58;99379.94;;;11.11;100.00
24230;BME280;12362;50.004;8.006;2024-03-02T11:14:30;99381.09;;;11.20;100.00
24230;BME280;12362;50.004;8.006;2024-03-02T11:16:56;99377.97;;;11.40;100.00
24230;BME280;12362;50.004;8.006;2024-03-02T11:19:22;99379.75;;;11.52;100.00
24230;BME280;12362;50.004;8.006;2024-03-02T11:21:48;99366.13;;;11.73;100.00
24230;BME280;12362;50.004;8.006;2024-03-02T11:24:30;99353.06;;;11.98;100.00
24230;BME280;12362;50.004;8.006;2024-03-02T11:27:02;99349.84;;;12.65;100.00
24230;BME280;12362;50.004;8.006;2024-03-02T11:32:21;99328.69;;;13.80;100.00
24230;BME280;12362;50.004;8.006;2024-03-02T11:34:49;99327.97;;;13.89;100.00
24230;BME280;12362;50.004;8.006;2024-03-02T11:37:19;99326.78;;;13.82;100.00
24230;BME280;12362;50.004;8.006;2024-03-02T11:39:51;99309.84;;;14.61;100.00
24230;BME280;12362;50.004;8.006;2024-03-02T11:42:17;99308.59;;;14.45;100.00
24230;BME280;12362;50.004;8.006;2024-03-02T11:44:46;99317.59;;;14.09;100.00
24230;BME280;12362;50.004;8.006;2024-03-02T11:47:14;99311.75;;;14.28;100.00
24230;BME280;12362;50.004;8.006;2024-03-02T11:49:41;99308.50;;;14.87;100.00
24230;BME280;12362;50.004;8.006;2024-03-02T11:52:09;99299.75;;;15.38;100.00
24230;BME280;12362;50.004;8.006;2024-03-02T11:54:39;99301.56;;;15.47;100.00
24230;BME280;12362;50.004;8.006;2024-03-02T11:57:08;99288.00;;;15.62;100.00
24230;BME280;12362;50.004;8.006;2024-03-02T11:59:34;99289.91;;;15.60;100.00
24230;BME280;12362;50.004;8.006;2024-03-02T12:02:02;99287.72;;;15.56;100.00
24230;BME280;12362;50.004;8.006;2024-03-02T12:04:29;99274.47;;;16.16;98.31
24230;BME280;12362;50.004;8.006;2024-03-02T12:07:03;99276.63;;;16.01;92.44
24230;BME280;12362;50.004;8.006;2024-03-02T12:09:29;99270.09;;;16.44;90.64
24230;BME280;12362;50.004;8.006;2024-03-02T12:12:08;99263.47;;;16.31;90.47
24230;BME280;12362;50.004;8.006;2024-03-02T12:14:36;99254.34;;;16.63;87.39
24230;BME280;12362;50.004;8.006;2024-03-02T12:17:03;99252.28;;;16.29;89.70
24230;BME280;12362;50.004;8.006;2024-03-02T12:19:29;99249.38;;;16.60;85.30
24230;BME280;12362;50.004;8.006;2024-03-02T12:21:56;99252.69;;;16.62;92.76
24230;BME280;12362;50.004;8.006;2024-03-02T12:24:22;99249.97;;;15.58;88.64
24230;BME280;12362;50.004;8.006;2024-03-02T12:26:51;99256.59;;;16.40;95.00
24230;BME280;12362;50.004;8.006;2024-03-02T12:29:21;99249.97;;;17.00;83.32
24230;BME280;12362;50.004;8.006;2024-03-02T12:31:53;99248.81;;;16.10;86.16
24230;BME280;12362;50.004;8.006;2024-03-02T12:34:18;99243.47;;;16.40;87.31
24230;BME280;12362;50.004;8.006;2024-03-02T12:36:46;99233.56;;;16.98;79.33
24230;BME280;12362;50.004;8.006;2024-03-02T12:39:16;99231.59;;;17.00;80.87
24230;BME280;12362;50.004;8.006;2024-03-02T12:41:41;99230.34;;;17.14;78.73
24230;BME280;12362;50.004;8.006;2024-03-02T12:44:07;99227.34;;;16.44;88.62
24230;BME280;12362;50.004;8.006;2024-03-02T12:46:33;99231.34;;;16.39;87.04
24230;BME280;12362;50.004;8.006;2024-03-02T12:49:04;99230.50;;;16.47;89.17
24230;BME280;12362;50.004;8.006;2024-03-02T12:51:30;99233.66;;;16.51;89.46
24230;BME280;12362;50.004;8.006;2024-03-02T12:53:57;99218.91;;;16.50;87.32
24230;BME280;12362;50.004;8.006;2024-03-02T12:56:26;99217.13;;;16.22;81.46
24230;BME280;12362;50.004;8.006;2024-03-02T12:58:55;99220.00;;;16.10;87.12
24230;BME280;12362;50.004;8.006;2024-03-02T13:01:21;99221.69;;;16.39;81.93